sensor_id;sensor_type;location;lat;lon;timestamp;pressure;altitude;pressure_sealevel;temperature
40968;BMP280;57377;45.130;6.038;2022-09-06T00:01:37;93050.31;;;20.97
40968;BMP280;57377;45.130;6.038;2022-09-06T00:04:02;93048.53;;;21.01
40968;BMP280;57377;45.130;6.038;2022-09-06T00:06:28;93050.81;;;21.03
40968;BMP280;57377;45.130;6.038;2022-09-06T00:08:53;93048.94;;;20.76
40968;BMP280;57377;45.130;6.038;2022-09-06T00:11:19;93050.41;;;20.62
40968;BMP280;57377;45.130;6.038;2022-09-06T00:13:45;93054.81;;;20.46
40968;BMP280;57377;45.130;6.038;2022-09-06T00:16:17;93045.47;;;20.49
40968;BMP280;57377;45.130;6.038;2022-09-06T00:18:43;93045.09;;;20.74
40968;BMP280;57377;45.130;6.038;2022-09-06T00:21:29;93050.81;;;20.76
40968;BMP280;57377;45.130;6.038;2022-09-06T00:23:55;93045.84;;;20.74
40968;BMP280;57377;45.130;6.038;2022-09-06T00:26:21;93040.13;;;20.84
40968;BMP280;57377;45.130;6.038;2022-09-06T00:28:47;93039.19;;;20.65
40968;BMP280;57377;45.130;6.038;2022-09-06T00:31:15;93032.00;;;20.65
40968;BMP280;57377;45.130;6.038;2022-09-06T00:33:42;93034.53;;;20.50
40968;BMP280;57377;45.130;6.038;2022-09-06T00:36:08;93040.50;;;20.47
40968;BMP280;57377;45.130;6.038;2022-09-06T00:38:34;93029.94;;;20.24
40968;BMP280;57377;45.130;6.038;2022-09-06T00:41:00;93042.00;;;19.54
40968;BMP280;57377;45.130;6.038;2022-09-06T00:43:26;93033.94;;;20.06
40968;BMP280;57377;45.130;6.038;2022-09-06T00:45:52;93039.66;;;19.96
40968;BMP280;57377;45.130;6.038;2022-09-06T00:48:19;93038.09;;;19.71
40968;BMP280;57377;45.130;6.038;2022-09-06T00:50:47;93037.03;;;20.20
40968;BMP280;57377;45.130;6.038;2022-09-06T00:53:13;93043.28;;;20.15
40968;BMP280;57377;45.130;6.038;2022-09-06T00:55:39;93030.63;;;20.32
40968;BMP280;57377;45.130;6.038;2022-09-06T00:58:07;93030.16;;;20.30
40968;BMP280;57377;45.130;6.038;2022-09-06T01:00:33;93024.53;;;20.44
40968;BMP280;57377;45.130;6.038;2022-09-06T01:02:58;93020.94;;;20.36
40968;BMP280;57377;45.130;6.038;2022-09-06T01:05:28;93025.66;;;20.31
40968;BMP280;57377;45.130;6.038;2022-09-06T01:22:08;93014.75;;;19.73
40968;BMP280;57377;45.130;6.038;2022-09-06T01:32:22;93022.25;;;19.71
40968;BMP280;57377;45.130;6.038;2022-09-06T01:34:53;93018.22;;;19.86
40968;BMP280;57377;45.130;6.038;2022-09-06T01:37:21;93013.94;;;19.93
40968;BMP280;57377;45.130;6.038;2022-09-06T01:39:47;93014.16;;;19.88
40968;BMP280;57377;45.130;6.038;2022-09-06T01:42:22;93023.09;;;19.52
40968;BMP280;57377;45.130;6.038;2022-09-06T01:44:53;93018.81;;;19.71
40968;BMP280;57377;45.130;6.038;2022-09-06T01:52:33;93015.13;;;19.95
40968;BMP280;57377;45.130;6.038;2022-09-06T01:55:11;93007.09;;;19.92
40968;BMP280;57377;45.130;6.038;2022-09-06T02:00:21;93013.03;;;19.89
40968;BMP280;57377;45.130;6.038;2022-09-06T02:05:46;92996.59;;;19.60
40968;BMP280;57377;45.130;6.038;2022-09-06T02:08:17;93008.38;;;19.62
40968;BMP280;57377;45.130;6.038;2022-09-06T02:10:48;92995.16;;;19.51
40968;BMP280;57377;45.130;6.038;2022-09-06T02:13:16;93000.22;;;19.56
40968;BMP280;57377;45.130;6.038;2022-09-06T02:15:51;92992.84;;;19.61
40968;BMP280;57377;45.130;6.038;2022-09-06T02:18:21;92998.03;;;19.69
40968;BMP280;57377;45.130;6.038;2022-09-06T02:20:51;92992.78;;;20.05
40968;BMP280;57377;45.130;6.038;2022-09-06T02:23:19;92988.38;;;19.97
40968;BMP280;57377;45.130;6.038;2022-09-06T02:26:01;92998.16;;;19.73
40968;BMP280;57377;45.130;6.038;2022-09-06T02:28:29;92997.16;;;19.54
40968;BMP280;57377;45.130;6.038;2022-09-06T02:30:58;92985.06;;;19.53
40968;BMP280;57377;45.130;6.038;2022-09-06T02:33:28;92998.94;;;19.97
40968;BMP280;57377;45.130;6.038;2022-09-06T02:35:54;92988.38;;;19.85
40968;BMP280;57377;45.130;6.038;2022-09-06T02:38:21;92997.19;;;19.89
40968;BMP280;57377;45.130;6.038;2022-09-06T02:40:49;92990.38;;;19.88
40968;BMP280;57377;45.130;6.038;2022-09-06T02:43:16;92993.34;;;19.87
40968;BMP280;57377;45.130;6.038;2022-09-06T02:45:41;92988.28;;;19.93
40968;BMP280;57377;45.130;6.038;2022-09-06T02:48:06;92995.84;;;19.95
40968;BMP280;57377;45.130;6.038;2022-09-06T02:50:32;92991.69;;;19.82
40968;BMP280;57377;45.130;6.038;2022-09-06T02:53:09;92991.91;;;20.01
40968;BMP280;57377;45.130;6.038;2022-09-06T02:55:36;92990.03;;;19.90
40968;BMP280;57377;45.130;6.038;2022-09-06T02:58:02;92997.84;;;19.86
40968;BMP280;57377;45.130;6.038;2022-09-06T03:00:28;92990.13;;;19.69
40968;BMP280;57377;45.130;6.038;2022-09-06T03:02:55;93000.97;;;19.21
40968;BMP280;57377;45.130;6.038;2022-09-06T03:05:24;92998.69;;;19.43
40968;BMP280;57377;45.130;6.038;2022-09-06T03:07:51;92988.56;;;19.45
40968;BMP280;57377;45.130;6.038;2022-09-06T03:10:17;92980.31;;;19.58
40968;BMP280;57377;45.130;6.038;2022-09-06T03:12:43;92989.53;;;19.28
40968;BMP280;57377;45.130;6.038;2022-09-06T03:15:09;92984.88;;;19.93
40968;BMP280;57377;45.130;6.038;2022-09-06T03:17:35;92987.06;;;20.03
40968;BMP280;57377;45.130;6.038;2022-09-06T03:20:00;92983.00;;;19.93
40968;BMP280;57377;45.130;6.038;2022-09-06T03:22:26;92988.50;;;19.77
40968;BMP280;57377;45.130;6.038;2022-09-06T03:24:51;92976.72;;;19.86
40968;BMP280;57377;45.130;6.038;2022-09-06T03:27:17;92977.03;;;19.73
40968;BMP280;57377;45.130;6.038;2022-09-06T03:29:42;92980.25;;;19.78
40968;BMP280;57377;45.130;6.038;2022-09-06T03:32:08;92982.28;;;19.61
40968;BMP280;57377;45.130;6.038;2022-09-06T03:34:33;92975.56;;;19.52
40968;BMP280;57377;45.130;6.038;2022-09-06T03:36:58;92982.22;;;19.69
40968;BMP280;57377;45.130;6.038;2022-09-06T03:39:24;92986.81;;;19.60
40968;BMP280;57377;45.130;6.038;2022-09-06T03:41:49;92982.06;;;19.66
40968;BMP280;57377;45.130;6.038;2022-09-06T03:44:14;92983.28;;;19.57
40968;BMP280;57377;45.130;6.038;2022-09-06T03:46:40;92984.84;;;19.58
40968;BMP280;57377;45.130;6.038;2022-09-06T03:49:05;92996.91;;;19.47
40968;BMP280;57377;45.130;6.038;2022-09-06T03:51:32;92987.69;;;19.64
40968;BMP280;57377;45.130;6.038;2022-09-06T03:53:57;92997.53;;;19.20
40968;BMP280;57377;45.130;6.038;2022-09-06T03:56:23;92991.50;;;19.31
40968;BMP280;57377;45.130;6.038;2022-09-06T03:58:48;92992.97;;;19.41
40968;BMP280;57377;45.130;6.038;2022-09-06T04:01:13;92987.34;;;18.98
40968;BMP280;57377;45.130;6.038;2022-09-06T04:03:39;92990.25;;;19.05
40968;BMP280;57377;45.130;6.038;2022-09-06T04:09:36;92982.19;;;19.46
40968;BMP280;57377;45.130;6.038;2022-09-06T04:12:02;92985.13;;;19.44
40968;BMP280;57377;45.130;6.038;2022-09-06T04:14:27;92988.13;;;19.43
40968;BMP280;57377;45.130;6.038;2022-09-06T04:16:53;92985.94;;;19.45
40968;BMP280;57377;45.130;6.038;2022-09-06T04:19:18;93001.97;;;19.40
40968;BMP280;57377;45.130;6.038;2022-09-06T04:21:44;92993.00;;;18.89
40968;BMP280;57377;45.130;6.038;2022-09-06T04:24:09;92981.66;;;19.08
40968;BMP280;57377;45.130;6.038;2022-09-06T04:26:35;92986.53;;;19.06
40968;BMP280;57377;45.130;6.038;2022-09-06T04:29:00;92991.59;;;18.91
40968;BMP280;57377;45.130;6.038;2022-09-06T04:31:33;92987.59;;;19.05
40968;BMP280;57377;45.130;6.038;2022-09-06T04:33:58;92993.34;;;19.19
40968;BMP280;57377;45.130;6.038;2022-09-06T04:36:29;92991.81;;;19.18
40968;BMP280;57377;45.130;6.038;2022-09-06T04:39:02;92991.81;;;19.30
40968;BMP280;57377;45.130;6.038;2022-09-06T04:41:27;92984.28;;;19.40
40968;BMP280;57377;45.130;6.038;2022-09-06T04:43:53;92986.34;;;19.23
40968;BMP280;57377;45.130;6.038;2022-09-06T04:46:21;92986.34;;;19.35
40968;BMP280;57377;45.130;6.038;2022-09-06T04:48:53;92986.47;;;19.38
40968;BMP280;57377;45.130;6.038;2022-09-06T04:51:19;92979.09;;;19.44
40968;BMP280;57377;45.130;6.038;2022-09-06T04:53:48;92982.19;;;19.46
40968;BMP280;57377;45.130;6.038;2022-09-06T04:56:16;92969.88;;;19.38
40968;BMP280;57377;45.130;6.038;2022-09-06T04:58:46;92974.25;;;19.34
40968;BMP280;57377;45.130;6.038;2022-09-06T05:01:12;92979.63;;;19.37
40968;BMP280;57377;45.130;6.038;2022-09-06T05:03:38;92974.28;;;19.46
40968;BMP280;57377;45.130;6.038;2022-09-06T05:08:42;92967.34;;;18.65
40968;BMP280;57377;45.130;6.038;2022-09-06T05:11:10;92970.47;;;18.99
40968;BMP280;57377;45.130;6.038;2022-09-06T05:13:36;92964.06;;;19.00
40968;BMP280;57377;45.130;6.038;2022-09-06T05:16:04;92968.16;;;19.10
40968;BMP280;57377;45.130;6.038;2022-09-06T05:18:30;92968.41;;;19.17
40968;BMP280;57377;45.130;6.038;2022-09-06T05:20:55;92973.81;;;19.32
40968;BMP280;57377;45.130;6.038;2022-09-06T05:23:21;92983.84;;;19.38
40968;BMP280;57377;45.130;6.038;2022-09-06T05:25:47;92981.97;;;19.39
40968;BMP280;57377;45.130;6.038;2022-09-06T05:28:13;92986.72;;;19.01
40968;BMP280;57377;45.130;6.038;2022-09-06T05:30:39;92992.34;;;18.92
40968;BMP280;57377;45.130;6.038;2022-09-06T05:33:06;92978.06;;;18.81
40968;BMP280;57377;45.130;6.038;2022-09-06T05:35:32;92984.97;;;19.05
40968;BMP280;57377;45.130;6.038;2022-09-06T05:37:57;92980.78;;;19.04
40968;BMP280;57377;45.130;6.038;2022-09-06T05:40:23;92984.66;;;18.87
40968;BMP280;57377;45.130;6.038;2022-09-06T05:42:48;92989.25;;;19.10
40968;BMP280;57377;45.130;6.038;2022-09-06T05:45:14;92996.34;;;19.41
40968;BMP280;57377;45.130;6.038;2022-09-06T05:47:39;92992.81;;;19.37
40968;BMP280;57377;45.130;6.038;2022-09-06T05:50:05;92996.22;;;19.26
40968;BMP280;57377;45.130;6.038;2022-09-06T05:52:31;92994.47;;;19.42
40968;BMP280;57377;45.130;6.038;2022-09-06T05:54:59;92993.47;;;19.23
40968;BMP280;57377;45.130;6.038;2022-09-06T05:57:25;92996.59;;;19.48
40968;BMP280;57377;45.130;6.038;2022-09-06T05:59:51;92988.78;;;19.28
40968;BMP280;57377;45.130;6.038;2022-09-06T06:02:21;92994.28;;;19.70
40968;BMP280;57377;45.130;6.038;2022-09-06T06:04:46;92984.88;;;19.81
40968;BMP280;57377;45.130;6.038;2022-09-06T06:07:15;92984.13;;;19.81
40968;BMP280;57377;45.130;6.038;2022-09-06T06:09:40;92990.56;;;19.95
40968;BMP280;57377;45.130;6.038;2022-09-06T06:12:07;92994.97;;;20.26
40968;BMP280;57377;45.130;6.038;2022-09-06T06:14:32;92989.47;;;20.20
40968;BMP280;57377;45.130;6.038;2022-09-06T06:16:58;92991.66;;;20.18
40968;BMP280;57377;45.130;6.038;2022-09-06T06:19:24;92984.38;;;20.26
40968;BMP280;57377;45.130;6.038;2022-09-06T06:21:51;92987.88;;;20.30
40968;BMP280;57377;45.130;6.038;2022-09-06T06:24:17;92982.63;;;20.19
40968;BMP280;57377;45.130;6.038;2022-09-06T06:26:42;92983.97;;;20.13
40968;BMP280;57377;45.130;6.038;2022-09-06T06:29:08;92975.13;;;20.32
40968;BMP280;57377;45.130;6.038;2022-09-06T06:31:34;92985.91;;;20.27
40968;BMP280;57377;45.130;6.038;2022-09-06T06:34:00;92987.63;;;20.59
40968;BMP280;57377;45.130;6.038;2022-09-06T06:36:32;92982.97;;;20.95
40968;BMP280;57377;45.130;6.038;2022-09-06T06:39:04;92978.94;;;20.86
40968;BMP280;57377;45.130;6.038;2022-09-06T06:41:33;92988.34;;;20.71
40968;BMP280;57377;45.130;6.038;2022-09-06T06:44:06;92985.63;;;20.68
40968;BMP280;57377;45.130;6.038;2022-09-06T06:46:36;92989.22;;;20.75
40968;BMP280;57377;45.130;6.038;2022-09-06T06:49:07;92987.69;;;21.01
40968;BMP280;57377;45.130;6.038;2022-09-06T06:51:34;92985.31;;;21.27
40968;BMP280;57377;45.130;6.038;2022-09-06T06:54:05;92986.97;;;20.89
40968;BMP280;57377;45.130;6.038;2022-09-06T06:56:38;92990.75;;;20.37
40968;BMP280;57377;45.130;6.038;2022-09-06T07:02:08;92987.50;;;20.67
40968;BMP280;57377;45.130;6.038;2022-09-06T07:05:10;92993.28;;;20.85
40968;BMP280;57377;45.130;6.038;2022-09-06T07:18:27;92972.56;;;20.87
40968;BMP280;57377;45.130;6.038;2022-09-06T07:20:55;92967.91;;;21.11
40968;BMP280;57377;45.130;6.038;2022-09-06T07:23:21;92958.13;;;21.72
40968;BMP280;57377;45.130;6.038;2022-09-06T07:25:49;92962.22;;;22.00
40968;BMP280;57377;45.130;6.038;2022-09-06T07:28:14;92958.78;;;22.00
40968;BMP280;57377;45.130;6.038;2022-09-06T07:30:40;92961.81;;;22.14
40968;BMP280;57377;45.130;6.038;2022-09-06T07:33:08;92963.06;;;22.20
40968;BMP280;57377;45.130;6.038;2022-09-06T07:35:33;92945.81;;;23.41
40968;BMP280;57377;45.130;6.038;2022-09-06T07:38:00;92951.00;;;23.79
40968;BMP280;57377;45.130;6.038;2022-09-06T07:40:27;92955.59;;;24.29
40968;BMP280;57377;45.130;6.038;2022-09-06T07:42:57;92948.91;;;24.39
40968;BMP280;57377;45.130;6.038;2022-09-06T07:45:23;92948.22;;;24.45
40968;BMP280;57377;45.130;6.038;2022-09-06T07:47:55;92938.63;;;24.66
40968;BMP280;57377;45.130;6.038;2022-09-06T07:50:23;92930.56;;;24.88
40968;BMP280;57377;45.130;6.038;2022-09-06T07:52:49;92930.19;;;24.61
40968;BMP280;57377;45.130;6.038;2022-09-06T07:55:14;92939.94;;;24.24
40968;BMP280;57377;45.130;6.038;2022-09-06T07:57:40;92942.25;;;25.13
40968;BMP280;57377;45.130;6.038;2022-09-06T08:00:05;92931.38;;;25.28
40968;BMP280;57377;45.130;6.038;2022-09-06T08:02:31;92923.84;;;26.26
40968;BMP280;57377;45.130;6.038;2022-09-06T08:04:59;92914.38;;;25.82
40968;BMP280;57377;45.130;6.038;2022-09-06T08:07:24;92919.44;;;25.98
40968;BMP280;57377;45.130;6.038;2022-09-06T08:09:50;92924.09;;;26.71
40968;BMP280;57377;45.130;6.038;2022-09-06T08:12:16;92914.19;;;26.72
40968;BMP280;57377;45.130;6.038;2022-09-06T08:14:42;92918.81;;;25.68
40968;BMP280;57377;45.130;6.038;2022-09-06T08:17:07;92926.47;;;26.79
40968;BMP280;57377;45.130;6.038;2022-09-06T08:19:32;92916.75;;;25.91
40968;BMP280;57377;45.130;6.038;2022-09-06T08:21:58;92923.47;;;26.98
40968;BMP280;57377;45.130;6.038;2022-09-06T08:24:24;92913.72;;;25.96
40968;BMP280;57377;45.130;6.038;2022-09-06T08:26:49;92913.16;;;26.19
40968;BMP280;57377;45.130;6.038;2022-09-06T08:29:15;92911.78;;;26.53
40968;BMP280;57377;45.130;6.038;2022-09-06T08:31:43;92910.13;;;26.24
40968;BMP280;57377;45.130;6.038;2022-09-06T08:34:09;92911.75;;;26.39
40968;BMP280;57377;45.130;6.038;2022-09-06T08:36:37;92913.84;;;26.13
40968;BMP280;57377;45.130;6.038;2022-09-06T08:39:04;92915.06;;;25.76
40968;BMP280;57377;45.130;6.038;2022-09-06T08:44:12;92908.13;;;24.89
40968;BMP280;57377;45.130;6.038;2022-09-06T08:46:42;92904.84;;;25.39
40968;BMP280;57377;45.130;6.038;2022-09-06T08:49:10;92906.94;;;25.23
40968;BMP280;57377;45.130;6.038;2022-09-06T08:54:17;92889.69;;;25.92
40968;BMP280;57377;45.130;6.038;2022-09-06T08:59:36;92891.66;;;26.02
40968;BMP280;57377;45.130;6.038;2022-09-06T09:02:09;92885.38;;;26.27
40968;BMP280;57377;45.130;6.038;2022-09-06T09:04:39;92879.28;;;26.34
40968;BMP280;57377;45.130;6.038;2022-09-06T09:10:06;92865.69;;;26.56
40968;BMP280;57377;45.130;6.038;2022-09-06T09:12:41;92866.41;;;26.46
40968;BMP280;57377;45.130;6.038;2022-09-06T09:15:10;92865.16;;;26.19
40968;BMP280;57377;45.130;6.038;2022-09-06T09:17:36;92861.97;;;26.04
40968;BMP280;57377;45.130;6.038;2022-09-06T09:20:03;92854.84;;;25.68
40968;BMP280;57377;45.130;6.038;2022-09-06T09:22:31;92848.06;;;25.77
40968;BMP280;57377;45.130;6.038;2022-09-06T09:24:57;92847.28;;;25.74
40968;BMP280;57377;45.130;6.038;2022-09-06T09:27:25;92840.47;;;25.83
40968;BMP280;57377;45.130;6.038;2022-09-06T09:32:35;92841.19;;;26.33
40968;BMP280;57377;45.130;6.038;2022-09-06T09:35:21;92849.25;;;26.47
40968;BMP280;57377;45.130;6.038;2022-09-06T09:37:58;92832.53;;;26.57
40968;BMP280;57377;45.130;6.038;2022-09-06T09:40:33;92834.06;;;26.58
40968;BMP280;57377;45.130;6.038;2022-09-06T09:43:29;92822.28;;;26.73
40968;BMP280;57377;45.130;6.038;2022-09-06T09:48:38;92820.75;;;26.72
40968;BMP280;57377;45.130;6.038;2022-09-06T09:51:24;92808.22;;;26.86
40968;BMP280;57377;45.130;6.038;2022-09-06T09:53:52;92810.53;;;27.08
40968;BMP280;57377;45.130;6.038;2022-09-06T09:56:27;92802.50;;;26.91
40968;BMP280;57377;45.130;6.038;2022-09-06T09:58:55;92802.13;;;26.96
40968;BMP280;57377;45.130;6.038;2022-09-06T10:01:25;92795.25;;;26.84
40968;BMP280;57377;45.130;6.038;2022-09-06T10:04:05;92781.53;;;27.10
40968;BMP280;57377;45.130;6.038;2022-09-06T10:06:31;92789.19;;;27.29
40968;BMP280;57377;45.130;6.038;2022-09-06T10:15:09;92770.50;;;27.39
40968;BMP280;57377;45.130;6.038;2022-09-06T10:25:17;92751.00;;;27.73
40968;BMP280;57377;45.130;6.038;2022-09-06T10:47:15;92716.59;;;27.75
40968;BMP280;57377;45.130;6.038;2022-09-06T10:49:55;92697.44;;;28.01
40968;BMP280;57377;45.130;6.038;2022-09-06T10:52:30;92691.72;;;27.92
40968;BMP280;57377;45.130;6.038;2022-09-06T10:55:03;92692.75;;;28.25
40968;BMP280;57377;45.130;6.038;2022-09-06T10:58:32;92687.38;;;28.32
40968;BMP280;57377;45.130;6.038;2022-09-06T11:01:41;92682.03;;;28.25
40968;BMP280;57377;45.130;6.038;2022-09-06T11:04:13;92673.47;;;28.58
40968;BMP280;57377;45.130;6.038;2022-09-06T11:06:47;92667.44;;;28.43
40968;BMP280;57377;45.130;6.038;2022-09-06T11:09:24;92673.22;;;28.28
40968;BMP280;57377;45.130;6.038;2022-09-06T11:12:05;92659.72;;;28.49
40968;BMP280;57377;45.130;6.038;2022-09-06T11:14:34;92648.78;;;28.83
40968;BMP280;57377;45.130;6.038;2022-09-06T11:17:31;92646.19;;;28.76
40968;BMP280;57377;45.130;6.038;2022-09-06T11:20:06;92640.94;;;29.09
40968;BMP280;57377;45.130;6.038;2022-09-06T11:28:22;92621.09;;;29.43
40968;BMP280;57377;45.130;6.038;2022-09-06T11:30:53;92624.56;;;29.40
40968;BMP280;57377;45.130;6.038;2022-09-06T11:33:26;92613.41;;;29.45
40968;BMP280;57377;45.130;6.038;2022-09-06T11:36:13;92598.19;;;29.72
40968;BMP280;57377;45.130;6.038;2022-09-06T11:38:39;92598.84;;;29.79
40968;BMP280;57377;45.130;6.038;2022-09-06T11:41:13;92595.41;;;29.82
40968;BMP280;57377;45.130;6.038;2022-09-06T11:43:43;92588.72;;;29.94
40968;BMP280;57377;45.130;6.038;2022-09-06T11:46:09;92585.34;;;29.90
40968;BMP280;57377;45.130;6.038;2022-09-06T11:48:48;92588.38;;;29.92
40968;BMP280;57377;45.130;6.038;2022-09-06T11:51:30;92583.78;;;30.18
40968;BMP280;57377;45.130;6.038;2022-09-06T11:56:32;92579.28;;;30.12
40968;BMP280;57377;45.130;6.038;2022-09-06T11:59:11;92584.31;;;30.36
40968;BMP280;57377;45.130;6.038;2022-09-06T12:07:35;92598.00;;;30.45
40968;BMP280;57377;45.130;6.038;2022-09-06T12:12:56;92592.47;;;30.55
40968;BMP280;57377;45.130;6.038;2022-09-06T12:16:11;92593.00;;;30.47
40968;BMP280;57377;45.130;6.038;2022-09-06T12:18:53;92586.19;;;30.65
40968;BMP280;57377;45.130;6.038;2022-09-06T12:21:38;92575.72;;;30.74
40968;BMP280;57377;45.130;6.038;2022-09-06T12:24:07;92572.75;;;30.65
40968;BMP280;57377;45.130;6.038;2022-09-06T12:29:48;92582.13;;;30.80
40968;BMP280;57377;45.130;6.038;2022-09-06T12:32:34;92577.22;;;30.49
40968;BMP280;57377;45.130;6.038;2022-09-06T12:35:22;92582.94;;;30.51
40968;BMP280;57377;45.130;6.038;2022-09-06T12:38:01;92572.75;;;30.39
40968;BMP280;57377;45.130;6.038;2022-09-06T12:40:45;92585.53;;;30.58
40968;BMP280;57377;45.130;6.038;2022-09-06T12:43:40;92577.88;;;30.56
40968;BMP280;57377;45.130;6.038;2022-09-06T12:49:09;92558.59;;;30.38
40968;BMP280;57377;45.130;6.038;2022-09-06T12:51:44;92555.72;;;30.49
40968;BMP280;57377;45.130;6.038;2022-09-06T12:54:39;92554.59;;;30.24
40968;BMP280;57377;45.130;6.038;2022-09-06T12:57:50;92557.41;;;30.39
40968;BMP280;57377;45.130;6.038;2022-09-06T13:00:24;92542.91;;;30.60
40968;BMP280;57377;45.130;6.038;2022-09-06T13:05:25;92541.19;;;30.46
40968;BMP280;57377;45.130;6.038;2022-09-06T13:07:54;92549.44;;;30.59
40968;BMP280;57377;45.130;6.038;2022-09-06T13:10:23;92552.94;;;30.56
40968;BMP280;57377;45.130;6.038;2022-09-06T13:12:50;92549.06;;;30.34
40968;BMP280;57377;45.130;6.038;2022-09-06T13:15:36;92542.66;;;29.99
40968;BMP280;57377;45.130;6.038;2022-09-06T13:18:43;92546.75;;;30.59
40968;BMP280;57377;45.130;6.038;2022-09-06T13:21:22;92538.22;;;30.41
40968;BMP280;57377;45.130;6.038;2022-09-06T13:23:48;92528.97;;;30.42
40968;BMP280;57377;45.130;6.038;2022-09-06T13:26:36;92526.97;;;30.49
40968;BMP280;57377;45.130;6.038;2022-09-06T13:29:21;92538.47;;;30.50
40968;BMP280;57377;45.130;6.038;2022-09-06T13:31:50;92534.25;;;30.49
40968;BMP280;57377;45.130;6.038;2022-09-06T13:34:51;92536.63;;;29.91
40968;BMP280;57377;45.130;6.038;2022-09-06T13:52:20;92554.00;;;28.74
40968;BMP280;57377;45.130;6.038;2022-09-06T13:54:56;92549.31;;;28.85
40968;BMP280;57377;45.130;6.038;2022-09-06T13:57:40;92534.56;;;29.10
40968;BMP280;57377;45.130;6.038;2022-09-06T14:00:08;92523.28;;;29.25
40968;BMP280;57377;45.130;6.038;2022-09-06T14:02:38;92517.50;;;29.27
40968;BMP280;57377;45.130;6.038;2022-09-06T14:05:13;92521.09;;;29.46
40968;BMP280;57377;45.130;6.038;2022-09-06T14:07:39;92519.94;;;29.47
40968;BMP280;57377;45.130;6.038;2022-09-06T14:10:26;92509.59;;;29.46
40968;BMP280;57377;45.130;6.038;2022-09-06T14:12:52;92500.34;;;29.50
40968;BMP280;57377;45.130;6.038;2022-09-06T14:15:37;92498.25;;;29.35
40968;BMP280;57377;45.130;6.038;2022-09-06T14:18:09;92500.19;;;29.35
40968;BMP280;57377;45.130;6.038;2022-09-06T14:20:35;92490.50;;;29.44
40968;BMP280;57377;45.130;6.038;2022-09-06T14:23:00;92480.75;;;29.27
40968;BMP280;57377;45.130;6.038;2022-09-06T14:25:26;92481.50;;;29.28
40968;BMP280;57377;45.130;6.038;2022-09-06T14:27:55;92491.50;;;29.24
40968;BMP280;57377;45.130;6.038;2022-09-06T14:30:34;92483.59;;;29.13
40968;BMP280;57377;45.130;6.038;2022-09-06T14:33:02;92496.41;;;28.92
40968;BMP280;57377;45.130;6.038;2022-09-06T14:35:31;92497.97;;;28.93
40968;BMP280;57377;45.130;6.038;2022-09-06T14:38:01;92500.19;;;28.98
40968;BMP280;57377;45.130;6.038;2022-09-06T14:40:34;92491.72;;;29.03
40968;BMP280;57377;45.130;6.038;2022-09-06T14:43:02;92511.13;;;28.77
40968;BMP280;57377;45.130;6.038;2022-09-06T14:45:40;92511.19;;;28.71
40968;BMP280;57377;45.130;6.038;2022-09-06T14:48:16;92512.56;;;28.85
40968;BMP280;57377;45.130;6.038;2022-09-06T14:50:44;92498.03;;;28.86
40968;BMP280;57377;45.130;6.038;2022-09-06T14:56:27;92525.88;;;27.99
40968;BMP280;57377;45.130;6.038;2022-09-06T14:58:53;92522.53;;;28.38
40968;BMP280;57377;45.130;6.038;2022-09-06T15:01:31;92523.69;;;28.40
40968;BMP280;57377;45.130;6.038;2022-09-06T15:04:03;92531.81;;;28.23
40968;BMP280;57377;45.130;6.038;2022-09-06T15:06:31;92530.50;;;27.95
40968;BMP280;57377;45.130;6.038;2022-09-06T15:08:57;92533.91;;;28.02
40968;BMP280;57377;45.130;6.038;2022-09-06T15:11:32;92543.06;;;28.05
40968;BMP280;57377;45.130;6.038;2022-09-06T15:14:21;92534.31;;;27.97
40968;BMP280;57377;45.130;6.038;2022-09-06T15:16:56;92539.81;;;27.66
40968;BMP280;57377;45.130;6.038;2022-09-06T15:19:27;92532.53;;;27.70
40968;BMP280;57377;45.130;6.038;2022-09-06T15:22:22;92532.81;;;27.86
40968;BMP280;57377;45.130;6.038;2022-09-06T15:24:49;92537.88;;;27.73
40968;BMP280;57377;45.130;6.038;2022-09-06T15:27:27;92534.06;;;27.68
40968;BMP280;57377;45.130;6.038;2022-09-06T15:29:55;92529.13;;;27.66
40968;BMP280;57377;45.130;6.038;2022-09-06T15:32:20;92533.84;;;27.28
40968;BMP280;57377;45.130;6.038;2022-09-06T15:34:46;92550.91;;;27.61
40968;BMP280;57377;45.130;6.038;2022-09-06T15:37:14;92551.66;;;27.62
40968;BMP280;57377;45.130;6.038;2022-09-06T15:39:40;92548.94;;;27.72
40968;BMP280;57377;45.130;6.038;2022-09-06T15:42:08;92555.91;;;27.52
40968;BMP280;57377;45.130;6.038;2022-09-06T15:44:39;92560.13;;;27.46
40968;BMP280;57377;45.130;6.038;2022-09-06T15:47:09;92556.31;;;27.47
40968;BMP280;57377;45.130;6.038;2022-09-06T15:49:36;92552.44;;;27.55
40968;BMP280;57377;45.130;6.038;2022-09-06T15:52:08;92557.44;;;27.50
40968;BMP280;57377;45.130;6.038;2022-09-06T15:54:51;92564.28;;;27.58
40968;BMP280;57377;45.130;6.038;2022-09-06T15:57:35;92561.72;;;27.13
40968;BMP280;57377;45.130;6.038;2022-09-06T16:00:21;92559.78;;;27.41
40968;BMP280;57377;45.130;6.038;2022-09-06T16:02:48;92557.47;;;27.43
40968;BMP280;57377;45.130;6.038;2022-09-06T16:05:14;92560.91;;;27.47
40968;BMP280;57377;45.130;6.038;2022-09-06T16:07:42;92555.91;;;27.52
40968;BMP280;57377;45.130;6.038;2022-09-06T16:10:10;92559.34;;;27.53
40968;BMP280;57377;45.130;6.038;2022-09-06T16:12:39;92557.88;;;27.31
40968;BMP280;57377;45.130;6.038;2022-09-06T16:15:08;92553.66;;;27.41
40968;BMP280;57377;45.130;6.038;2022-09-06T16:17:36;92551.34;;;27.46
40968;BMP280;57377;45.130;6.038;2022-09-06T16:20:02;92561.69;;;27.34
40968;BMP280;57377;45.130;6.038;2022-09-06T16:22:33;92579.00;;;26.84
40968;BMP280;57377;45.130;6.038;2022-09-06T16:25:01;92574.00;;;26.93
40968;BMP280;57377;45.130;6.038;2022-09-06T16:27:35;92577.81;;;26.92
40968;BMP280;57377;45.130;6.038;2022-09-06T16:30:00;92579.34;;;26.83
40968;BMP280;57377;45.130;6.038;2022-09-06T16:32:26;92572.03;;;27.18
40968;BMP280;57377;45.130;6.038;2022-09-06T16:34:52;92568.66;;;27.04
40968;BMP280;57377;45.130;6.038;2022-09-06T16:37:18;92566.34;;;27.09
40968;BMP280;57377;45.130;6.038;2022-09-06T16:39:45;92566.34;;;27.09
40968;BMP280;57377;45.130;6.038;2022-09-06T16:42:36;92567.84;;;27.17
40968;BMP280;57377;45.130;6.038;2022-09-06T16:45:12;92582.41;;;26.99
40968;BMP280;57377;45.130;6.038;2022-09-06T16:47:42;92572.78;;;27.22
40968;BMP280;57377;45.130;6.038;2022-09-06T16:50:11;92559.81;;;27.24
40968;BMP280;57377;45.130;6.038;2022-09-06T16:55:30;92568.94;;;27.33
40968;BMP280;57377;45.130;6.038;2022-09-06T16:57:58;92564.38;;;27.37